sim
Sign-in with your pilot id or email,
or register
Callsign
Passwort

Schedule Details

Flight Number: OEO4533
Departure: Berlin Tegel Airport (EDDT) at 06:35
Arrival: Munich Airport (EDDM) at 07:50

Weather Information
Getting current METAR information for EDDT 231620Z 31003KT CAVOK 24/11 Q1004 NOSIG
Getting current METAR information for EDDM 231620Z 27003KT 9999 FEW040 18/14 Q1009 NOSIG

Schedule Frequency

Route Map